Time;durP1;ratioP1;P1;durP2;ratioP2;P2;SDS_P1;SDS_P2;PMS_P1;PMS_P2;Temp;Humidity;BMP_temperature;BMP_pressure;BME280_temperature;BME280_humidity;BME280_pressure;Samples;Min_cycle;Max_cycle;Signal;HPM_P1;HPM_P2
2021/06/20 00:00:16;;;;;;;24.00;21.70;;;;;;;-144.27;100.00;69759.91;2095674;28;20222;-76
2021/06/20 00:01:22;;;;;;;22.40;20.40;;;;;;;-144.27;100.00;69759.91;2096961;28;20962;-77
2021/06/20 00:02:23;;;;;;;22.63;20.63;;;;;;;-144.27;100.00;69759.91;2095809;28;20491;-77
2021/06/20 00:03:25;;;;;;;23.80;21.37;;;;;;;-144.27;100.00;69759.91;2104295;28;20466;-77
2021/06/20 00:04:25;;;;;;;22.83;20.83;;;;;;;-144.27;100.00;69759.91;2105132;28;20232;-76
2021/06/20 00:05:31;;;;;;;22.90;20.80;;;;;;;-144.27;100.00;69759.91;2105088;28;20480;-76
2021/06/20 00:06:34;;;;;;;22.13;20.33;;;;;;;-144.27;100.00;69759.91;2105360;28;20224;-77
2021/06/20 00:07:37;;;;;;;23.40;21.17;;;;;;;-144.27;100.00;69759.91;2105221;28;20462;-76
2021/06/20 00:08:39;;;;;;;22.97;20.73;;;;;;;-144.27;100.00;69759.91;2104793;28;20849;-77
2021/06/20 00:09:41;;;;;;;21.90;20.00;;;;;;;-144.27;100.00;69759.91;2104099;28;20933;-76
2021/06/20 00:10:41;;;;;;;21.80;19.77;;;;;;;-144.27;100.00;69759.91;2104248;28;20465;-77
2021/06/20 00:11:45;;;;;;;22.00;19.93;;;;;;;-144.27;100.00;69759.91;2104266;28;21259;-76
2021/06/20 00:12:46;;;;;;;22.83;20.80;;;;;;;-144.27;100.00;69759.91;2104517;28;20227;-76
2021/06/20 00:13:48;;;;;;;22.30;20.27;;;;;;;-144.27;100.00;69759.91;2105164;28;20527;-77
2021/06/20 00:14:48;;;;;;;22.97;20.93;;;;;;;-144.27;100.00;69759.91;2104465;28;20224;-76
2021/06/20 00:15:51;;;;;;;22.90;21.10;;;;;;;-144.27;100.00;69759.91;2096112;28;20547;-76
2021/06/20 00:16:52;;;;;;;21.70;19.83;;;;;;;-144.27;100.00;69759.91;2096229;28;20747;-76
2021/06/20 00:17:54;;;;;;;23.60;21.33;;;;;;;-144.27;100.00;69759.91;2104163;28;20893;-76
2021/06/20 00:18:55;;;;;;;22.60;20.80;;;;;;;-144.27;100.00;69759.91;2104357;28;20271;-77
2021/06/20 00:19:56;;;;;;;22.40;20.30;;;;;;;-144.27;100.00;69759.91;2095708;28;20437;-76
2021/06/20 00:20:57;;;;;;;22.10;20.10;;;;;;;-144.27;100.00;69759.91;2104486;28;20229;-76
2021/06/20 00:21:59;;;;;;;22.23;20.33;;;;;;;-144.27;100.00;69759.91;2105862;28;20450;-77
2021/06/20 00:23:00;;;;;;;22.83;20.70;;;;;;;-144.27;100.00;69759.91;2106116;28;20988;-76
2021/06/20 00:24:04;;;;;;;22.07;19.93;;;;;;;-144.27;100.00;69759.91;2106164;28;20439;-76
2021/06/20 00:25:06;;;;;;;23.33;21.20;;;;;;;-144.27;100.00;69759.91;2106171;28;20459;-76
2021/06/20 00:26:08;;;;;;;23.40;21.40;;;;;;;-144.27;100.00;69759.91;2098014;28;20505;-76
2021/06/20 00:27:09;;;;;;;23.13;21.10;;;;;;;-144.27;100.00;69759.91;2105630;28;20529;-77
2021/06/20 00:28:11;;;;;;;23.60;21.13;;;;;;;-144.27;100.00;69759.91;2106761;28;20459;-76
2021/06/20 00:29:12;;;;;;;22.43;20.57;;;;;;;-144.27;100.00;69759.91;2106806;28;20262;-77
2021/06/20 00:30:16;;;;;;;22.60;20.50;;;;;;;-144.27;100.00;69759.91;2106907;28;20452;-76
2021/06/20 00:31:18;;;;;;;22.17;20.40;;;;;;;-144.27;100.00;69759.91;2105975;28;20229;-76
2021/06/20 00:32:19;;;;;;;22.23;20.23;;;;;;;-144.27;100.00;69759.91;2106161;28;20487;-76
2021/06/20 00:33:21;;;;;;;23.30;20.97;;;;;;;-144.27;100.00;69759.91;2114536;28;20435;-76
2021/06/20 00:34:21;;;;;;;21.83;20.10;;;;;;;-144.27;100.00;69759.91;2106787;28;20236;-76
2021/06/20 00:35:23;;;;;;;22.73;20.50;;;;;;;-144.27;100.00;69759.91;2105517;28;20526;-76
2021/06/20 00:36:24;;;;;;;22.60;20.70;;;;;;;-144.27;100.00;69759.91;2097240;28;20229;-76
2021/06/20 00:37:26;;;;;;;23.30;21.40;;;;;;;-144.27;100.00;69759.91;2097554;28;20484;-76
2021/06/20 00:38:27;;;;;;;22.83;20.97;;;;;;;-144.27;100.00;69759.91;2097295;28;20664;-76
2021/06/20 00:39:30;;;;;;;23.77;21.57;;;;;;;-144.27;100.00;69759.91;2106088;28;20447;-76
2021/06/20 00:40:31;;;;;;;22.67;20.83;;;;;;;-144.27;100.00;69759.91;2106689;28;20610;-76
2021/06/20 00:41:32;;;;;;;22.67;20.47;;;;;;;-144.27;100.00;69759.91;2106817;28;20438;-76
2021/06/20 00:42:34;;;;;;;23.00;20.97;;;;;;;-144.27;100.00;69759.91;2106485;28;20279;-76
2021/06/20 00:43:36;;;;;;;22.43;20.33;;;;;;;-144.27;100.00;69759.91;2105795;28;20520;-76
2021/06/20 00:44:43;;;;;;;23.07;20.93;;;;;;;-144.27;100.00;69759.91;2097047;28;20942;-76
2021/06/20 00:45:46;;;;;;;22.93;20.97;;;;;;;-144.27;100.00;69759.91;2098151;28;20448;-76
2021/06/20 00:46:47;;;;;;;22.90;21.03;;;;;;;-144.27;100.00;69759.91;2106039;28;20447;-76
2021/06/20 00:47:49;;;;;;;22.63;20.67;;;;;;;-144.27;100.00;69759.91;2105533;28;20526;-76
2021/06/20 00:48:50;;;;;;;22.80;21.00;;;;;;;-144.27;100.00;69759.91;2106022;28;20632;-76
2021/06/20 00:49:51;;;;;;;22.37;20.47;;;;;;;-144.27;100.00;69759.91;2106650;28;20470;-76
2021/06/20 00:50:52;;;;;;;22.90;20.73;;;;;;;-144.27;100.00;69759.91;2106607;28;20217;-76
2021/06/20 00:51:54;;;;;;;22.10;20.50;;;;;;;-144.27;100.00;69759.91;2106474;28;20551;-76
2021/06/20 00:52:56;;;;;;;23.00;21.20;;;;;;;-144.27;100.00;69759.91;2105436;28;20232;-76
2021/06/20 00:53:58;;;;;;;23.20;21.10;;;;;;;-144.27;100.00;69759.91;2106090;28;20463;-76
2021/06/20 00:55:00;;;;;;;23.27;21.37;;;;;;;-144.27;100.00;69759.91;2106559;28;20447;-76
2021/06/20 00:56:02;;;;;;;24.10;21.80;;;;;;;-144.27;100.00;69759.91;2106486;28;20439;-76
2021/06/20 00:57:04;;;;;;;22.63;20.90;;;;;;;-144.27;100.00;69759.91;2106621;28;20443;-76
2021/06/20 00:58:07;;;;;;;23.27;20.93;;;;;;;-144.27;100.00;69759.91;2106588;28;20460;-76
2021/06/20 00:59:08;;;;;;;23.57;21.23;;;;;;;-144.27;100.00;69759.91;2104471;28;20475;-76
2021/06/20 01:00:11;;;;;;;23.07;20.90;;;;;;;-144.27;100.00;69759.91;2105971;28;21004;-77
2021/06/20 01:01:13;;;;;;;22.30;20.50;;;;;;;-144.27;100.00;69759.91;2105823;28;27469;-76
2021/06/20 01:02:16;;;;;;;24.87;22.07;;;;;;;-144.27;100.00;69759.91;2105960;28;20459;-76
2021/06/20 01:03:17;;;;;;;23.67;21.23;;;;;;;-144.27;100.00;69759.91;2106620;28;20458;-76
2021/06/20 01:04:18;;;;;;;24.20;21.90;;;;;;;-144.27;100.00;69759.91;2105731;28;20957;-76
2021/06/20 01:05:20;;;;;;;24.10;21.90;;;;;;;-144.27;100.00;69759.91;2097385;28;20848;-76
2021/06/20 01:06:21;;;;;;;24.60;22.30;;;;;;;-144.27;100.00;69759.91;2105853;28;20217;-76
2021/06/20 01:07:24;;;;;;;23.63;21.43;;;;;;;-144.27;100.00;69759.91;2104919;28;20531;-75
2021/06/20 01:08:25;;;;;;;23.63;21.73;;;;;;;-144.27;100.00;69759.91;2105358;28;20466;-76
2021/06/20 01:09:27;;;;;;;24.27;21.87;;;;;;;-144.27;100.00;69759.91;2105697;28;20498;-76
2021/06/20 01:10:35;;;;;;;24.20;21.83;;;;;;;-144.27;100.00;69759.91;2096828;28;20583;-77
2021/06/20 01:11:37;;;;;;;23.27;21.23;;;;;;;-144.27;100.00;69759.91;2105645;28;21021;-77
2021/06/20 01:12:38;;;;;;;23.60;21.47;;;;;;;-144.27;100.00;69759.91;2106138;28;20466;-76
2021/06/20 01:13:40;;;;;;;24.10;22.00;;;;;;;-144.27;100.00;69759.91;2105568;28;20451;-76
2021/06/20 01:14:41;;;;;;;24.57;22.07;;;;;;;-144.27;100.00;69759.91;2105645;28;20463;-76
2021/06/20 01:15:49;;;;;;;24.73;22.47;;;;;;;-144.27;100.00;69759.91;2105881;28;20447;-77
2021/06/20 01:16:50;;;;;;;24.07;21.93;;;;;;;-144.27;100.00;69759.91;2105806;28;20945;-76
2021/06/20 01:17:52;;;;;;;24.17;21.87;;;;;;;-144.27;100.00;69759.91;2105541;28;20451;-76
2021/06/20 01:18:54;;;;;;;25.13;22.83;;;;;;;-144.27;100.00;69759.91;2105275;28;20808;-76
2021/06/20 01:19:55;;;;;;;24.97;22.67;;;;;;;-144.27;100.00;69759.91;2106363;28;20451;-76
2021/06/20 01:20:56;;;;;;;24.10;22.10;;;;;;;-144.27;100.00;69759.91;2105568;28;21028;-76
2021/06/20 01:22:13;;;;;;;24.83;22.33;;;;;;;-144.27;100.00;69759.91;2097068;28;20841;-76
2021/06/20 01:23:15;;;;;;;24.10;21.77;;;;;;;-144.27;100.00;69759.91;2105268;28;20223;-76
2021/06/20 01:24:16;;;;;;;24.83;22.40;;;;;;;-144.27;100.00;69759.91;2105930;28;20972;-76
2021/06/20 01:25:21;;;;;;;24.30;22.10;;;;;;;-144.27;100.00;69759.91;2106362;28;20863;-75
2021/06/20 01:26:22;;;;;;;24.93;22.73;;;;;;;-144.27;100.00;69759.91;2104853;28;20217;-75
2021/06/20 01:27:25;;;;;;;26.17;23.80;;;;;;;-144.27;100.00;69759.91;2104459;28;20942;-77
2021/06/20 01:28:27;;;;;;;25.40;22.53;;;;;;;-144.27;100.00;69759.91;2105699;28;20225;-75
2021/06/20 01:29:33;;;;;;;24.80;22.43;;;;;;;-144.27;100.00;69759.91;2105507;28;20465;-76
2021/06/20 01:30:36;;;;;;;24.33;22.03;;;;;;;-144.27;100.00;69759.91;2097445;28;20452;-76
2021/06/20 01:31:37;;;;;;;24.77;22.67;;;;;;;-144.27;100.00;69759.91;2096709;28;20457;-76
2021/06/20 01:32:39;;;;;;;24.73;22.53;;;;;;;-144.27;100.00;69759.91;2096274;28;21031;-77
2021/06/20 01:33:41;;;;;;;26.17;23.57;;;;;;;-144.27;100.00;69759.91;2105002;28;20772;-75
2021/06/20 01:34:43;;;;;;;25.37;22.77;;;;;;;-144.27;100.00;69759.91;2105658;28;20466;-76
2021/06/20 01:35:45;;;;;;;23.90;21.80;;;;;;;-144.27;100.00;69759.91;2105451;28;20456;-76
2021/06/20 01:36:45;;;;;;;24.47;22.07;;;;;;;-144.27;100.00;69759.91;2105804;28;20444;-76
2021/06/20 01:37:49;;;;;;;24.10;21.90;;;;;;;-144.27;100.00;69759.91;2105538;28;20534;-76
2021/06/20 01:38:50;;;;;;;24.97;22.83;;;;;;;-144.27;100.00;69759.91;2105722;28;20633;-76
2021/06/20 01:39:52;;;;;;;24.43;22.10;;;;;;;-144.27;100.00;69759.91;2104883;28;20452;-76
2021/06/20 01:40:53;;;;;;;24.43;22.00;;;;;;;-144.27;100.00;69759.91;2096959;28;20465;-76
2021/06/20 01:41:55;;;;;;;24.73;22.53;;;;;;;-144.27;100.00;69759.91;2096766;28;20629;-76
2021/06/20 01:42:56;;;;;;;24.30;22.00;;;;;;;-144.27;100.00;69759.91;2105514;28;20985;-77
2021/06/20 01:43:58;;;;;;;24.90;22.47;;;;;;;-144.27;100.00;69759.91;2106309;28;20845;-76
2021/06/20 01:44:58;;;;;;;25.53;23.30;;;;;;;-144.27;100.00;69759.91;2105076;28;20229;-75
2021/06/20 01:46:00;;;;;;;24.77;22.57;;;;;;;-144.27;100.00;69759.91;2096778;28;20461;-75
2021/06/20 01:47:01;;;;;;;25.10;22.80;;;;;;;-144.27;100.00;69759.91;2105634;28;20225;-76
2021/06/20 01:48:04;;;;;;;25.13;22.63;;;;;;;-144.27;100.00;69759.91;2105459;28;20493;-77
2021/06/20 01:49:04;;;;;;;24.47;22.30;;;;;;;-144.27;100.00;69759.91;2105044;28;20680;-76
2021/06/20 01:50:08;;;;;;;25.17;23.03;;;;;;;-144.27;100.00;69759.91;2096829;28;20766;-76
2021/06/20 01:51:10;;;;;;;25.17;22.93;;;;;;;-144.27;100.00;69759.91;2105303;28;20300;-76
2021/06/20 01:52:11;;;;;;;24.97;22.60;;;;;;;-144.27;100.00;69759.91;2106168;28;20455;-76
2021/06/20 01:53:15;;;;;;;25.30;23.10;;;;;;;-144.27;100.00;69759.91;2105377;28;20463;-76
2021/06/20 01:54:16;;;;;;;25.13;22.93;;;;;;;-144.27;100.00;69759.91;2105617;28;20221;-76
2021/06/20 01:55:18;;;;;;;25.67;23.50;;;;;;;-144.27;100.00;69759.91;2106427;28;20497;-76
2021/06/20 01:56:18;;;;;;;24.87;22.67;;;;;;;-144.27;100.00;69759.91;2105409;28;20683;-76
2021/06/20 01:57:22;;;;;;;24.97;22.97;;;;;;;-144.27;100.00;69759.91;2105529;28;20842;-76
2021/06/20 01:58:23;;;;;;;26.03;23.83;;;;;;;-144.27;100.00;69759.91;2104989;28;20245;-78
2021/06/20 01:59:24;;;;;;;23.90;21.87;;;;;;;-144.27;100.00;69759.91;2096351;28;20464;-76
2021/06/20 02:00:25;;;;;;;25.57;23.10;;;;;;;-144.27;100.00;69759.91;2096963;28;20221;-77
2021/06/20 02:01:30;;;;;;;24.37;22.23;;;;;;;-144.27;100.00;69759.91;2096866;28;20456;-76
2021/06/20 02:02:30;;;;;;;24.97;22.53;;;;;;;-144.27;100.00;69759.91;2105411;28;20225;-76
2021/06/20 02:03:32;;;;;;;24.43;22.30;;;;;;;-144.27;100.00;69759.91;2106263;28;20440;-76
2021/06/20 02:04:33;;;;;;;24.87;22.57;;;;;;;-144.27;100.00;69759.91;2106352;28;20703;-77
2021/06/20 02:05:35;;;;;;;24.77;22.77;;;;;;;-144.27;100.00;69759.91;2106121;28;20873;-76
2021/06/20 02:06:36;;;;;;;25.80;23.60;;;;;;;-144.27;100.00;69759.91;2105287;28;20566;-76
2021/06/20 02:07:39;;;;;;;25.03;22.83;;;;;;;-144.27;100.00;69759.91;2096625;28;20536;-76
2021/06/20 02:08:41;;;;;;;24.37;22.47;;;;;;;-144.27;100.00;69759.91;2104944;28;20224;-77
2021/06/20 02:09:43;;;;;;;25.17;23.20;;;;;;;-144.27;100.00;69759.91;2106176;28;20447;-76
2021/06/20 02:10:44;;;;;;;24.50;22.50;;;;;;;-144.27;100.00;69759.91;2105918;28;20949;-76
2021/06/20 02:11:45;;;;;;;24.70;22.60;;;;;;;-144.27;100.00;69759.91;2105193;28;20923;-75
2021/06/20 02:12:46;;;;;;;25.27;22.87;;;;;;;-144.27;100.00;69759.91;2096629;28;20372;-76
2021/06/20 02:13:48;;;;;;;23.83;21.93;;;;;;;-144.27;100.00;69759.91;2105395;28;20618;-76
2021/06/20 02:14:50;;;;;;;24.50;22.20;;;;;;;-144.27;100.00;69759.91;2106068;28;20228;-76
2021/06/20 02:15:52;;;;;;;24.87;22.87;;;;;;;-144.27;100.00;69759.91;2106074;28;20447;-76
2021/06/20 02:16:53;;;;;;;24.67;22.60;;;;;;;-144.27;100.00;69759.91;2104247;28;20464;-77
2021/06/20 02:17:55;;;;;;;24.70;22.60;;;;;;;-144.27;100.00;69759.91;2096849;28;20962;-76
2021/06/20 02:18:56;;;;;;;25.63;23.30;;;;;;;-144.27;100.00;69759.91;2105152;28;20293;-76
2021/06/20 02:19:59;;;;;;;25.90;23.30;;;;;;;-144.27;100.00;69759.91;2105200;28;20451;-76
2021/06/20 02:20:59;;;;;;;24.87;22.77;;;;;;;-144.27;100.00;69759.91;2104445;28;20571;-76
2021/06/20 02:22:01;;;;;;;25.43;23.30;;;;;;;-144.27;100.00;69759.91;2096826;28;20476;-76
2021/06/20 02:23:03;;;;;;;25.63;23.43;;;;;;;-144.27;100.00;69759.91;2096535;28;20273;-76
2021/06/20 02:24:06;;;;;;;26.33;23.90;;;;;;;-144.27;100.00;69759.91;2105225;28;20456;-76
2021/06/20 02:25:09;;;;;;;25.80;23.53;;;;;;;-144.27;100.00;69759.91;2105286;28;20456;-76
2021/06/20 02:26:09;;;;;;;25.87;23.50;;;;;;;-144.27;100.00;69759.91;2096583;28;20997;-76
2021/06/20 02:27:12;;;;;;;27.37;24.40;;;;;;;-144.27;100.00;69759.91;2096790;28;20876;-76
2021/06/20 02:28:14;;;;;;;26.30;23.90;;;;;;;-144.27;100.00;69759.91;2105288;28;20232;-76
2021/06/20 02:29:15;;;;;;;27.47;24.60;;;;;;;-144.27;100.00;69759.91;2105833;28;20452;-76
2021/06/20 02:30:19;;;;;;;26.53;24.30;;;;;;;-144.27;100.00;69759.91;2105079;28;20444;-76
2021/06/20 02:31:20;;;;;;;26.20;24.07;;;;;;;-144.27;100.00;69759.91;2105175;28;20525;-76
2021/06/20 02:32:23;;;;;;;26.30;23.97;;;;;;;-144.27;100.00;69759.91;2104958;28;20562;-76
2021/06/20 02:33:23;;;;;;;26.33;23.93;;;;;;;-144.27;100.00;69759.91;2096284;28;20275;-77
2021/06/20 02:34:25;;;;;;;27.93;25.00;;;;;;;-144.27;100.00;69759.91;2104578;28;20485;-76
2021/06/20 02:35:27;;;;;;;27.57;24.83;;;;;;;-144.27;100.00;69759.91;2113424;28;20578;-76
2021/06/20 02:36:28;;;;;;;26.67;24.33;;;;;;;-144.27;100.00;69759.91;2104365;28;20483;-76
2021/06/20 02:37:32;;;;;;;27.73;25.27;;;;;;;-144.27;100.00;69759.91;2105085;28;20929;-76
2021/06/20 02:38:33;;;;;;;27.37;24.77;;;;;;;-144.27;100.00;69759.91;2104829;28;20245;-76
2021/06/20 02:39:36;;;;;;;27.03;24.60;;;;;;;-144.27;100.00;69759.91;2105188;28;21027;-76
2021/06/20 02:40:37;;;;;;;26.40;24.20;;;;;;;-144.27;100.00;69759.91;2104555;28;20316;-76
2021/06/20 02:41:38;;;;;;;26.90;24.60;;;;;;;-144.27;100.00;69759.91;2104322;28;20467;-77
2021/06/20 02:42:39;;;;;;;26.83;24.47;;;;;;;-144.27;100.00;69759.91;2105693;28;20232;-76
2021/06/20 02:43:41;;;;;;;27.40;24.90;;;;;;;-144.27;100.00;69759.91;2104725;28;20451;-76
2021/06/20 02:44:43;;;;;;;27.40;25.00;;;;;;;-144.27;100.00;69759.91;2095743;28;20469;-76
2021/06/20 02:45:45;;;;;;;27.40;25.00;;;;;;;-144.27;100.00;69759.91;2096481;28;20444;-76
2021/06/20 02:46:46;;;;;;;28.20;25.43;;;;;;;-144.27;100.00;69759.91;2105150;28;20454;-76
2021/06/20 02:47:48;;;;;;;27.37;24.67;;;;;;;-144.27;100.00;69759.91;2104950;28;20450;-76
2021/06/20 02:48:49;;;;;;;26.30;23.73;;;;;;;-144.27;100.00;69759.91;2105133;28;20473;-76
2021/06/20 02:49:51;;;;;;;27.20;24.80;;;;;;;-144.27;100.00;69759.91;2104711;28;20467;-76
2021/06/20 02:50:52;;;;;;;26.40;24.00;;;;;;;-144.27;100.00;69759.91;2105087;28;20454;-76
2021/06/20 02:51:54;;;;;;;27.20;24.40;;;;;;;-144.27;100.00;69759.91;2103711;28;20467;-76
2021/06/20 02:52:55;;;;;;;27.10;24.57;;;;;;;-144.27;100.00;69759.91;2104963;28;20237;-76
2021/06/20 02:53:56;;;;;;;27.67;25.23;;;;;;;-144.27;100.00;69759.91;2104870;28;20539;-76
2021/06/20 02:55:01;;;;;;;28.03;25.00;;;;;;;-144.27;100.00;69759.91;2104996;28;20229;-75
2021/06/20 02:56:03;;;;;;;27.60;25.00;;;;;;;-144.27;100.00;69759.91;2104761;28;21686;-76
2021/06/20 02:57:05;;;;;;;29.13;26.33;;;;;;;-144.27;100.00;69759.91;2104842;28;20459;-76
2021/06/20 02:58:07;;;;;;;27.73;25.17;;;;;;;-144.27;100.00;69759.91;2104888;28;20463;-76
2021/06/20 02:59:08;;;;;;;27.80;25.17;;;;;;;-144.27;100.00;69759.91;2096017;28;21017;-77
2021/06/20 03:00:11;;;;;;;27.70;25.20;;;;;;;-144.27;100.00;69759.91;2096063;28;20527;-76
2021/06/20 03:01:11;;;;;;;28.00;25.60;;;;;;;-144.27;100.00;69759.91;2105045;28;20779;-76
2021/06/20 03:02:13;;;;;;;27.53;24.93;;;;;;;-144.27;100.00;69759.91;2105551;28;24371;-75
2021/06/20 03:03:14;;;;;;;28.87;26.00;;;;;;;-144.27;100.00;69759.91;2105642;28;20225;-75
2021/06/20 03:04:16;;;;;;;30.40;26.97;;;;;;;-144.27;100.00;69759.91;2104062;28;20944;-76
2021/06/20 03:05:17;;;;;;;28.57;25.73;;;;;;;-144.27;100.00;69759.91;2104881;28;20224;-76
2021/06/20 03:06:19;;;;;;;29.53;26.37;;;;;;;-144.27;100.00;69759.91;2104820;28;20463;-76
2021/06/20 03:07:20;;;;;;;28.23;25.73;;;;;;;-144.27;100.00;69759.91;2104167;28;20993;-76
2021/06/20 03:08:22;;;;;;;28.33;25.30;;;;;;;-144.27;100.00;69759.91;2104796;28;20444;-75
2021/06/20 03:09:22;;;;;;;28.23;25.67;;;;;;;-144.27;100.00;69759.91;2103642;28;20455;-76
2021/06/20 03:10:26;;;;;;;29.37;26.40;;;;;;;-144.27;100.00;69759.91;2096065;28;20502;-77
2021/06/20 03:11:27;;;;;;;27.60;25.20;;;;;;;-144.27;100.00;69759.91;2096658;28;20218;-76
2021/06/20 03:12:28;;;;;;;29.20;26.40;;;;;;;-144.27;100.00;69759.91;2096383;28;20488;-75
2021/06/20 03:13:29;;;;;;;27.83;25.33;;;;;;;-144.27;100.00;69759.91;2095788;28;20689;-76
2021/06/20 03:14:31;;;;;;;27.50;25.10;;;;;;;-144.27;100.00;69759.91;2104972;28;20983;-76
2021/06/20 03:15:33;;;;;;;27.07;24.57;;;;;;;-144.27;100.00;69759.91;2105559;28;20260;-76
2021/06/20 03:16:35;;;;;;;28.20;25.57;;;;;;;-144.27;100.00;69759.91;2105587;28;20455;-76
2021/06/20 03:17:36;;;;;;;31.80;25.97;;;;;;;-144.27;100.00;69759.91;2104718;28;20447;-76
2021/06/20 03:18:37;;;;;;;28.33;25.83;;;;;;;-144.27;100.00;69759.91;2096136;28;20476;-76
2021/06/20 03:19:39;;;;;;;29.13;26.20;;;;;;;-144.27;100.00;69759.91;2104293;28;20542;-76
2021/06/20 03:20:40;;;;;;;30.37;26.17;;;;;;;-144.27;100.00;69759.91;2104665;28;20447;-76
2021/06/20 03:21:42;;;;;;;29.17;26.47;;;;;;;-144.27;100.00;69759.91;2104711;28;20451;-76
2021/06/20 03:22:44;;;;;;;28.47;26.00;;;;;;;-144.27;100.00;69759.91;2104289;28;20476;-76
2021/06/20 03:23:45;;;;;;;29.33;26.50;;;;;;;-144.27;100.00;69759.91;2104899;28;20934;-76
2021/06/20 03:24:49;;;;;;;28.60;25.80;;;;;;;-144.27;100.00;69759.91;2105560;28;20440;-76
2021/06/20 03:25:51;;;;;;;28.60;25.90;;;;;;;-144.27;100.00;69759.91;2105224;28;20506;-76
2021/06/20 03:26:53;;;;;;;26.87;24.47;;;;;;;-144.27;100.00;69759.91;2105349;28;20452;-76
2021/06/20 03:27:54;;;;;;;28.03;25.60;;;;;;;-144.27;100.00;69759.91;2104947;28;20860;-76
2021/06/20 03:28:56;;;;;;;28.27;25.67;;;;;;;-144.27;100.00;69759.91;2105465;28;20467;-76
2021/06/20 03:29:57;;;;;;;27.97;25.27;;;;;;;-144.27;100.00;69759.91;2105471;28;20271;-76
2021/06/20 03:30:58;;;;;;;29.20;26.33;;;;;;;-144.27;100.00;69759.91;2104620;28;20440;-76
2021/06/20 03:31:59;;;;;;;28.80;26.00;;;;;;;-144.27;100.00;69759.91;2104696;28;20224;-76
2021/06/20 03:33:01;;;;;;;26.77;24.30;;;;;;;-144.27;100.00;69759.91;2104695;28;20444;-76
2021/06/20 03:34:02;;;;;;;27.27;24.83;;;;;;;-144.27;100.00;69759.91;2095587;28;20643;-76
2021/06/20 03:35:04;;;;;;;27.20;24.77;;;;;;;-144.27;100.00;69759.91;2104718;28;20531;-75
2021/06/20 03:36:06;;;;;;;26.67;24.50;;;;;;;-144.27;100.00;69759.91;2105468;28;20278;-75
2021/06/20 03:37:07;;;;;;;28.10;25.60;;;;;;;-144.27;100.00;69759.91;2103739;28;20478;-76
2021/06/20 03:38:09;;;;;;;27.10;24.40;;;;;;;-144.27;100.00;69759.91;2096121;28;20456;-77
2021/06/20 03:39:11;;;;;;;27.80;25.00;;;;;;;-144.27;100.00;69759.91;2104610;28;20295;-77
2021/06/20 03:40:13;;;;;;;27.77;25.17;;;;;;;-144.27;100.00;69759.91;2104543;28;20865;-76
2021/06/20 03:41:16;;;;;;;27.43;24.80;;;;;;;-144.27;100.00;69759.91;2095969;28;20453;-76
2021/06/20 03:42:17;;;;;;;33.33;25.97;;;;;;;-144.27;100.00;69759.91;2104399;28;20444;-76
2021/06/20 03:43:18;;;;;;;27.23;24.93;;;;;;;-144.27;100.00;69759.91;2104495;28;20458;-76
2021/06/20 03:44:20;;;;;;;28.10;25.53;;;;;;;-144.27;100.00;69759.91;2095558;28;20970;-76
2021/06/20 03:45:21;;;;;;;29.27;26.17;;;;;;;-144.27;100.00;69759.91;2096295;28;20237;-76
2021/06/20 03:46:22;;;;;;;27.27;24.77;;;;;;;-144.27;100.00;69759.91;2104669;28;20453;-75
2021/06/20 03:47:23;;;;;;;29.00;26.17;;;;;;;-144.27;100.00;69759.91;2104994;28;20225;-76
2021/06/20 03:48:25;;;;;;;28.20;25.53;;;;;;;-144.27;100.00;69759.91;2104085;28;21012;-76
2021/06/20 03:49:26;;;;;;;28.40;25.60;;;;;;;-144.27;100.00;69759.91;2104323;28;20611;-76
2021/06/20 03:50:28;;;;;;;27.97;25.47;;;;;;;-144.27;100.00;69759.91;2105291;28;20514;-76
2021/06/20 03:51:29;;;;;;;29.80;27.10;;;;;;;-144.27;100.00;69759.91;2104376;28;20274;-76
2021/06/20 03:52:30;;;;;;;27.83;25.40;;;;;;;-144.27;100.00;69759.91;2095448;28;20514;-75
2021/06/20 03:53:31;;;;;;;29.23;26.27;;;;;;;-144.27;100.00;69759.91;2104616;28;20305;-76
2021/06/20 03:54:33;;;;;;;29.13;26.20;;;;;;;-144.27;100.00;69759.91;2105139;28;20460;-76
2021/06/20 03:55:34;;;;;;;29.27;26.30;;;;;;;-144.27;100.00;69759.91;2104217;28;20694;-76
2021/06/20 03:56:37;;;;;;;28.73;26.13;;;;;;;-144.27;100.00;69759.91;2104627;28;20895;-76
2021/06/20 03:57:38;;;;;;;28.77;25.87;;;;;;;-144.27;100.00;69759.91;2104011;28;20228;-76
2021/06/20 03:58:40;;;;;;;28.13;25.47;;;;;;;-144.27;100.00;69759.91;2104556;28;20942;-76
2021/06/20 03:59:41;;;;;;;28.57;25.77;;;;;;;-144.27;100.00;69759.91;2105170;28;20490;-76
2021/06/20 04:00:42;;;;;;;29.77;27.00;;;;;;;-144.27;100.00;69759.91;2105215;28;20486;-76
2021/06/20 04:01:43;;;;;;;29.37;26.47;;;;;;;-144.27;100.00;69759.91;2104358;28;20574;-76
2021/06/20 04:02:45;;;;;;;30.10;27.13;;;;;;;-144.27;100.00;69759.91;2104519;28;20515;-76
2021/06/20 04:03:46;;;;;;;28.87;26.33;;;;;;;-144.27;100.00;69759.91;2103779;28;20282;-76
2021/06/20 04:04:48;;;;;;;29.93;27.30;;;;;;;-144.27;100.00;69759.91;2104666;28;20444;-76
2021/06/20 04:05:49;;;;;;;30.07;27.27;;;;;;;-144.27;100.00;69759.91;2105120;28;20226;-76
2021/06/20 04:06:50;;;;;;;30.57;27.67;;;;;;;-144.27;100.00;69759.91;2104410;28;21043;-76
2021/06/20 04:07:51;;;;;;;30.97;27.97;;;;;;;-144.27;100.00;69759.91;2096154;28;20369;-76
2021/06/20 04:08:53;;;;;;;29.97;27.37;;;;;;;-144.27;100.00;69759.91;2104554;28;20463;-76
2021/06/20 04:09:54;;;;;;;30.40;27.63;;;;;;;-144.27;100.00;69759.91;2104586;28;20274;-77
2021/06/20 04:10:55;;;;;;;29.83;27.17;;;;;;;-144.27;100.00;69759.91;2105215;28;21034;-76
2021/06/20 04:11:58;;;;;;;30.50;27.50;;;;;;;-144.27;100.00;69759.91;2104252;28;20679;-76
2021/06/20 04:13:00;;;;;;;29.53;26.83;;;;;;;-144.27;100.00;69759.91;2095675;28;20460;-76
2021/06/20 04:14:00;;;;;;;30.30;27.37;;;;;;;-144.27;100.00;69759.91;2096165;28;20452;-76
2021/06/20 04:15:02;;;;;;;30.50;27.60;;;;;;;-144.27;100.00;69759.91;2104597;28;20486;-76
2021/06/20 04:16:04;;;;;;;29.77;26.90;;;;;;;-144.27;100.00;69759.91;2105262;28;20263;-76
2021/06/20 04:17:06;;;;;;;30.07;27.27;;;;;;;-144.27;100.00;69759.91;2104315;28;20467;-76
2021/06/20 04:18:07;;;;;;;30.40;27.40;;;;;;;-144.27;100.00;69759.91;2104423;28;20436;-77
2021/06/20 04:19:09;;;;;;;29.77;26.97;;;;;;;-144.27;100.00;69759.91;2104720;28;20451;-76
2021/06/20 04:20:12;;;;;;;30.67;27.43;;;;;;;-144.27;100.00;69759.91;2103851;28;20474;-77
2021/06/20 04:21:14;;;;;;;29.53;27.00;;;;;;;-144.27;100.00;69759.91;2095898;28;20887;-76
2021/06/20 04:22:15;;;;;;;29.50;26.50;;;;;;;-144.27;100.00;69759.91;2104302;28;20976;-76
2021/06/20 04:23:16;;;;;;;29.20;26.70;;;;;;;-144.27;100.00;69759.91;2105109;28;20856;-76
2021/06/20 04:24:17;;;;;;;29.40;26.77;;;;;;;-144.27;100.00;69759.91;2105139;28;20210;-76
2021/06/20 04:25:19;;;;;;;31.10;27.83;;;;;;;-144.27;100.00;69759.91;2104115;28;20525;-76
2021/06/20 04:26:20;;;;;;;31.30;27.90;;;;;;;-144.27;100.00;69759.91;2095921;28;20233;-76
2021/06/20 04:27:24;;;;;;;30.67;27.50;;;;;;;-144.27;100.00;69759.91;2096113;28;20519;-76
2021/06/20 04:28:25;;;;;;;29.97;27.17;;;;;;;-144.27;100.00;69759.91;2095875;28;20672;-76
2021/06/20 04:29:26;;;;;;;29.80;26.97;;;;;;;-144.27;100.00;69759.91;2095830;28;20495;-76
2021/06/20 04:30:27;;;;;;;31.60;28.40;;;;;;;-144.27;100.00;69759.91;2095971;28;20348;-77
2021/06/20 04:31:29;;;;;;;30.27;27.37;;;;;;;-144.27;100.00;69759.91;2095979;28;21024;-76
2021/06/20 04:32:30;;;;;;;30.13;27.03;;;;;;;-144.27;100.00;69759.91;2104386;28;20455;-75
2021/06/20 04:33:32;;;;;;;30.20;26.93;;;;;;;-144.27;100.00;69759.91;2105118;28;20530;-76
2021/06/20 04:34:33;;;;;;;32.93;27.60;;;;;;;-144.27;100.00;69759.91;2105159;28;20304;-75